62.9°F
Current conditions from King Hill
Updated every 5 minutes
 
  Monday November 24, 2014

Station Historical Data
Daily Summary for May 2, 2012 Units:  Both    English   Metric
« Previous Day
Next Day »
Daily Weekly Monthly Yearly Custom
  High: Low: Average:
Temperature: 61.8 °F /  16.6 °C 43.6 °F /  6.4 °C 51.1 °F /  10.6 °C
Dew Point: 49.3 °F /  9.6 °C 41.8 °F /  5.4 °C 44.9 °F /  7.2 °C
Humidity: 95% 59% 80%
Wind Speed: 6.0mph /  9.7km/h - 2.3mph /  3.7km/h
Wind Gust: 14.0mph /  22.5km/h - -
Wind- - SSE
Pressure: 30.13 in /  1020.2 hPa 30.01 in /  1016.1 hPa -
Precipitation: 0.01 in /  0.3 mm    
Historical Graphs
 
 
Tabular Data for May 2, 2012
Time Temperature Dew Point Pressure Wind Wind Speed Wind Gust Humidity Daily Rainfall
00:04 45.6 °F /  7.6 °C 42.5 °F /  5.8 °C 30.05in /  1017.5hPa Calm     89% 0.00in /  0mm
00:09 45.6 °F /  7.6 °C 42.8 °F /  6 °C 30.05in /  1017.5hPa Calm     90% 0.00in /  0mm
00:14 45.5 °F /  7.5 °C 42.7 °F /  5.9 °C 30.05in /  1017.5hPa Calm     90% 0.00in /  0mm
00:19 45.5 °F /  7.5 °C 42.7 °F /  5.9 °C 30.05in /  1017.5hPa Calm     90% 0.00in /  0mm
00:24 45.4 °F /  7.4 °C 42.6 °F /  5.9 °C 30.05in /  1017.5hPa Calm     90% 0.00in /  0mm
00:29 45.4 °F /  7.4 °C 42.6 °F /  5.9 °C 30.05in /  1017.5hPa Calm     90% 0.00in /  0mm
00:34 45.4 °F /  7.4 °C 42.6 °F /  5.9 °C 30.06in /  1017.8hPa Calm     90% 0.00in /  0mm
00:39 45.4 °F /  7.4 °C 42.6 °F /  5.9 °C 30.05in /  1017.5hPa Calm     90% 0.00in /  0mm
00:44 45.3 °F /  7.4 °C 42.5 °F /  5.8 °C 30.05in /  1017.5hPa Calm     90% 0.00in /  0mm
00:49 45.4 °F /  7.4 °C 42.6 °F /  5.9 °C 30.06in /  1017.8hPa Calm     90% 0.00in /  0mm
00:54 45.4 °F /  7.4 °C 42.6 °F /  5.9 °C 30.06in /  1017.8hPa Calm     90% 0.00in /  0mm
00:59 45.4 °F /  7.4 °C 42.6 °F /  5.9 °C 30.06in /  1017.8hPa Calm     90% 0.00in /  0mm
01:04 45.4 °F /  7.4 °C 42.6 °F /  5.9 °C 30.06in /  1017.8hPa Calm     90% 0.00in /  0mm
01:09 45.4 °F /  7.4 °C 42.6 °F /  5.9 °C 30.06in /  1017.8hPa Calm     90% 0.00in /  0mm
01:14 45.4 °F /  7.4 °C 42.6 °F /  5.9 °C 30.06in /  1017.8hPa Calm     90% 0.00in /  0mm
01:19 45.4 °F /  7.4 °C 42.6 °F /  5.9 °C 30.06in /  1017.8hPa Calm     90% 0.00in /  0mm
01:24 45.4 °F /  7.4 °C 42.6 °F /  5.9 °C 30.06in /  1017.8hPa Calm     90% 0.00in /  0mm
01:29 45.5 °F /  7.5 °C 42.7 °F /  5.9 °C 30.06in /  1017.8hPa Calm     90% 0.00in /  0mm
01:34 45.4 °F /  7.4 °C 42.6 °F /  5.9 °C 30.06in /  1017.8hPa Calm     90% 0.00in /  0mm
01:39 45.4 °F /  7.4 °C 42.6 °F /  5.9 °C 30.06in /  1017.8hPa Calm     90% 0.00in /  0mm
01:44 45.4 °F /  7.4 °C 42.6 °F /  5.9 °C 30.05in /  1017.5hPa Calm     90% 0.00in /  0mm
01:49 45.3 °F /  7.4 °C 42.8 °F /  6 °C 30.05in /  1017.5hPa Calm     91% 0.00in /  0mm
01:59 45.1 °F /  7.3 °C 42.3 °F /  5.7 °C 30.06in /  1017.8hPa Calm     90% 0.00in /  0mm
02:04 45.0 °F /  7.2 °C 42.2 °F /  5.7 °C 30.05in /  1017.5hPa Calm     90% 0.00in /  0mm
02:09 45.0 °F /  7.2 °C 42.5 °F /  5.8 °C 30.05in /  1017.5hPa Calm     91% 0.00in /  0mm
02:14 44.9 °F /  7.2 °C 42.4 °F /  5.8 °C 30.05in /  1017.5hPa Calm     91% 0.00in /  0mm
02:19 44.9 °F /  7.2 °C 42.4 °F /  5.8 °C 30.05in /  1017.5hPa Calm     91% 0.00in /  0mm
02:24 44.8 °F /  7.1 °C 42.3 °F /  5.7 °C 30.05in /  1017.5hPa Calm     91% 0.00in /  0mm
02:29 44.8 °F /  7.1 °C 42.3 °F /  5.7 °C 30.05in /  1017.5hPa Calm     91% 0.00in /  0mm
02:34 44.7 °F /  7.1 °C 42.2 °F /  5.7 °C 30.05in /  1017.5hPa Calm     91% 0.00in /  0mm
02:39 44.7 °F /  7.1 °C 42.2 °F /  5.7 °C 30.05in /  1017.5hPa Calm     91% 0.00in /  0mm
02:44 44.7 °F /  7.1 °C 42.2 °F /  5.7 °C 30.06in /  1017.8hPa Calm     91% 0.00in /  0mm
02:49 44.7 °F /  7.1 °C 42.2 °F /  5.7 °C 30.06in /  1017.8hPa Calm     91% 0.00in /  0mm
02:54 44.6 °F /  7 °C 42.4 °F /  5.8 °C 30.06in /  1017.8hPa Calm     92% 0.00in /  0mm
02:59 44.6 °F /  7 °C 42.4 °F /  5.8 °C 30.06in /  1017.8hPa Calm     92% 0.00in /  0mm
03:04 44.6 °F /  7 °C 42.4 °F /  5.8 °C 30.06in /  1017.8hPa Calm     92% 0.00in /  0mm
03:09 44.5 °F /  6.9 °C 42.3 °F /  5.7 °C 30.06in /  1017.8hPa Calm     92% 0.00in /  0mm
03:14 44.5 °F /  6.9 °C 42.3 °F /  5.7 °C 30.06in /  1017.8hPa Calm     92% 0.00in /  0mm
03:19 44.4 °F /  6.9 °C 42.2 °F /  5.7 °C 30.06in /  1017.8hPa Calm     92% 0.00in /  0mm
03:24 44.4 °F /  6.9 °C 42.2 °F /  5.7 °C 30.06in /  1017.8hPa Calm     92% 0.00in /  0mm
03:29 44.3 °F /  6.8 °C 42.1 °F /  5.6 °C 30.06in /  1017.8hPa Calm     92% 0.00in /  0mm
03:34 44.3 °F /  6.8 °C 42.1 °F /  5.6 °C 30.06in /  1017.8hPa Calm     92% 0.00in /  0mm
03:39 44.3 °F /  6.8 °C 42.4 °F /  5.8 °C 30.06in /  1017.8hPa Calm     93% 0.00in /  0mm
03:49 44.4 °F /  6.9 °C 42.5 °F /  5.8 °C 30.06in /  1017.8hPa Calm     93% 0.00in /  0mm
03:54 44.4 °F /  6.9 °C 42.5 °F /  5.8 °C 30.06in /  1017.8hPa Calm     93% 0.00in /  0mm
03:59 44.3 °F /  6.8 °C 42.4 °F /  5.8 °C 30.06in /  1017.8hPa Calm     93% 0.00in /  0mm
04:04 44.4 °F /  6.9 °C 42.5 °F /  5.8 °C 30.06in /  1017.8hPa Calm     93% 0.00in /  0mm
04:09 44.3 °F /  6.8 °C 42.4 °F /  5.8 °C 30.06in /  1017.8hPa Calm     93% 0.00in /  0mm
04:14 44.3 °F /  6.8 °C 42.4 °F /  5.8 °C 30.06in /  1017.8hPa Calm     93% 0.00in /  0mm
04:19 44.2 °F /  6.8 °C 42.3 °F /  5.7 °C 30.07in /  1018.2hPa Calm     93% 0.00in /  0mm
04:24 44.2 °F /  6.8 °C 42.3 °F /  5.7 °C 30.07in /  1018.2hPa Calm     93% 0.00in /  0mm
04:34 44.1 °F /  6.7 °C 42.2 °F /  5.7 °C 30.07in /  1018.2hPa Calm     93% 0.00in /  0mm
04:39 44.1 °F /  6.7 °C 42.2 °F /  5.7 °C 30.07in /  1018.2hPa Calm     93% 0.00in /  0mm
04:44 44.0 °F /  6.7 °C 42.1 °F /  5.6 °C 30.08in /  1018.5hPa Calm     93% 0.00in /  0mm
04:49 43.9 °F /  6.6 °C 42.0 °F /  5.6 °C 30.07in /  1018.2hPa Calm     93% 0.00in /  0mm
04:54 43.9 °F /  6.6 °C 42.0 °F /  5.6 °C 30.07in /  1018.2hPa Calm     93% 0.00in /  0mm
04:59 43.9 °F /  6.6 °C 42.0 °F /  5.6 °C 30.08in /  1018.5hPa Calm   3.0mph /  4.8km/h 93% 0.00in /  0mm
05:04 43.8 °F /  6.6 °C 41.9 °F /  5.5 °C 30.08in /  1018.5hPa Calm   3.0mph /  4.8km/h 93% 0.00in /  0mm
05:09 43.7 °F /  6.5 °C 41.8 °F /  5.4 °C 30.08in /  1018.5hPa Calm   2.0mph /  3.2km/h 93% 0.00in /  0mm
05:14 43.7 °F /  6.5 °C 41.8 °F /  5.4 °C 30.08in /  1018.5hPa Calm   2.0mph /  3.2km/h 93% 0.00in /  0mm
05:19 43.7 °F /  6.5 °C 42.1 °F /  5.6 °C 30.08in /  1018.5hPa Calm   2.0mph /  3.2km/h 94% 0.00in /  0mm
05:24 43.7 °F /  6.5 °C 42.1 °F /  5.6 °C 30.08in /  1018.5hPa SE 1.0mph /  1.6km/h 2.0mph /  3.2km/h 94% 0.00in /  0mm
05:34 43.7 °F /  6.5 °C 42.1 °F /  5.6 °C 30.08in /  1018.5hPa Calm   1.0mph /  1.6km/h 94% 0.00in /  0mm
05:44 43.6 °F /  6.4 °C 42.0 °F /  5.6 °C 30.08in /  1018.5hPa Calm     94% 0.01in /  0.3mm
05:54 43.7 °F /  6.5 °C 42.1 °F /  5.6 °C 30.08in /  1018.5hPa Calm   1.0mph /  1.6km/h 94% 0.01in /  0.3mm
05:59 43.7 °F /  6.5 °C 42.1 °F /  5.6 °C 30.08in /  1018.5hPa Calm   1.0mph /  1.6km/h 94% 0.01in /  0.3mm
06:04 43.8 °F /  6.6 °C 42.2 °F /  5.7 °C 30.08in /  1018.5hPa Calm   2.0mph /  3.2km/h 94% 0.01in /  0.3mm
06:09 43.9 °F /  6.6 °C 42.3 °F /  5.7 °C 30.08in /  1018.5hPa Calm   2.0mph /  3.2km/h 94% 0.01in /  0.3mm
06:14 43.9 °F /  6.6 °C 42.3 °F /  5.7 °C 30.09in /  1018.8hPa Calm     94% 0.01in /  0.3mm
06:19 44.0 °F /  6.7 °C 42.4 °F /  5.8 °C 30.09in /  1018.8hPa Calm     94% 0.01in /  0.3mm
06:24 44.0 °F /  6.7 °C 42.4 °F /  5.8 °C 30.10in /  1019.2hPa Calm     94% 0.01in /  0.3mm
06:29 44.0 °F /  6.7 °C 42.4 °F /  5.8 °C 30.09in /  1018.8hPa Calm     94% 0.01in /  0.3mm
06:34 44.1 °F /  6.7 °C 42.5 °F /  5.8 °C 30.09in /  1018.8hPa Calm   1.0mph /  1.6km/h 94% 0.01in /  0.3mm
06:39 44.2 °F /  6.8 °C 42.6 °F /  5.9 °C 30.09in /  1018.8hPa Calm   3.0mph /  4.8km/h 94% 0.01in /  0.3mm
06:44 44.2 °F /  6.8 °C 42.6 °F /  5.9 °C 30.10in /  1019.2hPa SE 1.0mph /  1.6km/h 3.0mph /  4.8km/h 94% 0.01in /  0.3mm
06:49 44.1 °F /  6.7 °C 42.5 °F /  5.8 °C 30.10in /  1019.2hPa Calm   3.0mph /  4.8km/h 94% 0.01in /  0.3mm
06:54 44.0 °F /  6.7 °C 42.4 °F /  5.8 °C 30.09in /  1018.8hPa ESE 1.0mph /  1.6km/h 3.0mph /  4.8km/h 94% 0.01in /  0.3mm
06:59 43.9 °F /  6.6 °C 42.6 °F /  5.9 °C 30.10in /  1019.2hPa Calm   3.0mph /  4.8km/h 95% 0.01in /  0.3mm
07:04 43.8 °F /  6.6 °C 42.5 °F /  5.8 °C 30.09in /  1018.8hPa Calm   3.0mph /  4.8km/h 95% 0.01in /  0.3mm
07:09 43.9 °F /  6.6 °C 42.6 °F /  5.9 °C 30.10in /  1019.2hPa ESE 1.0mph /  1.6km/h 3.0mph /  4.8km/h 95% 0.01in /  0.3mm
07:14 43.9 °F /  6.6 °C 42.6 °F /  5.9 °C 30.10in /  1019.2hPa Calm   3.0mph /  4.8km/h 95% 0.01in /  0.3mm
07:19 44.0 °F /  6.7 °C 42.7 °F /  5.9 °C 30.10in /  1019.2hPa ESE 1.0mph /  1.6km/h 3.0mph /  4.8km/h 95% 0.01in /  0.3mm
07:24 44.1 °F /  6.7 °C 42.8 °F /  6 °C 30.09in /  1018.8hPa Calm   3.0mph /  4.8km/h 95% 0.01in /  0.3mm
07:29 44.3 °F /  6.8 °C 43.0 °F /  6.1 °C 30.09in /  1018.8hPa ESE 1.0mph /  1.6km/h 4.0mph /  6.4km/h 95% 0.01in /  0.3mm
07:34 44.3 °F /  6.8 °C 43.0 °F /  6.1 °C 30.09in /  1018.8hPa ESE 1.0mph /  1.6km/h 4.0mph /  6.4km/h 95% 0.01in /  0.3mm
07:39 44.5 °F /  6.9 °C 43.2 °F /  6.2 °C 30.10in /  1019.2hPa ESE 1.0mph /  1.6km/h 4.0mph /  6.4km/h 95% 0.01in /  0.3mm
07:44 44.6 °F /  7 °C 43.3 °F /  6.3 °C 30.10in /  1019.2hPa ENE 1.0mph /  1.6km/h 3.0mph /  4.8km/h 95% 0.01in /  0.3mm
07:49 44.6 °F /  7 °C 43.3 °F /  6.3 °C 30.10in /  1019.2hPa NE 1.0mph /  1.6km/h 5.0mph /  8km/h 95% 0.01in /  0.3mm
07:54 44.6 °F /  7 °C 43.3 °F /  6.3 °C 30.11in /  1019.5hPa Calm   5.0mph /  8km/h 95% 0.01in /  0.3mm
07:59 44.9 °F /  7.2 °C 43.6 °F /  6.4 °C 30.12in /  1019.9hPa Calm   3.0mph /  4.8km/h 95% 0.01in /  0.3mm
08:04 44.9 °F /  7.2 °C 43.6 °F /  6.4 °C 30.12in /  1019.9hPa NE 1.0mph /  1.6km/h 5.0mph /  8km/h 95% 0.01in /  0.3mm
08:09 44.9 °F /  7.2 °C 43.6 °F /  6.4 °C 30.12in /  1019.9hPa Calm   5.0mph /  8km/h 95% 0.01in /  0.3mm
08:14 45.0 °F /  7.2 °C 43.7 °F /  6.5 °C 30.12in /  1019.9hPa Calm   2.0mph /  3.2km/h 95% 0.01in /  0.3mm
08:19 45.0 °F /  7.2 °C 43.7 °F /  6.5 °C 30.13in /  1020.2hPa Calm   3.0mph /  4.8km/h 95% 0.01in /  0.3mm
08:24 45.0 °F /  7.2 °C 43.7 °F /  6.5 °C 30.13in /  1020.2hPa ENE 1.0mph /  1.6km/h 3.0mph /  4.8km/h 95% 0.01in /  0.3mm
08:29 45.0 °F /  7.2 °C 43.7 °F /  6.5 °C 30.12in /  1019.9hPa Calm   3.0mph /  4.8km/h 95% 0.01in /  0.3mm
08:39 45.0 °F /  7.2 °C 43.7 °F /  6.5 °C 30.12in /  1019.9hPa ENE 1.0mph /  1.6km/h 5.0mph /  8km/h 95% 0.01in /  0.3mm
08:44 45.1 °F /  7.3 °C 43.8 °F /  6.6 °C 30.12in /  1019.9hPa ENE 1.0mph /  1.6km/h 5.0mph /  8km/h 95% 0.01in /  0.3mm
08:49 45.1 °F /  7.3 °C 43.8 °F /  6.6 °C 30.12in /  1019.9hPa ENE 2.0mph /  3.2km/h 5.0mph /  8km/h 95% 0.01in /  0.3mm
08:59 45.5 °F /  7.5 °C 44.2 °F /  6.8 °C 30.12in /  1019.9hPa NE 1.0mph /  1.6km/h 6.0mph /  9.7km/h 95% 0.01in /  0.3mm
09:04 45.8 °F /  7.7 °C 44.5 °F /  6.9 °C 30.12in /  1019.9hPa ENE 1.0mph /  1.6km/h 6.0mph /  9.7km/h 95% 0.01in /  0.3mm
09:09 46.1 °F /  7.8 °C 44.7 °F /  7.1 °C 30.11in /  1019.5hPa ENE 1.0mph /  1.6km/h 5.0mph /  8km/h 95% 0.01in /  0.3mm
09:14 46.3 °F /  7.9 °C 44.9 °F /  7.2 °C 30.11in /  1019.5hPa Calm   4.0mph /  6.4km/h 95% 0.01in /  0.3mm
09:19 46.6 °F /  8.1 °C 45.0 °F /  7.2 °C 30.11in /  1019.5hPa Calm   6.0mph /  9.7km/h 94% 0.01in /  0.3mm
09:24 46.9 °F /  8.3 °C 45.3 °F /  7.4 °C 30.11in /  1019.5hPa ENE 2.0mph /  3.2km/h 7.0mph /  11.3km/h 94% 0.01in /  0.3mm
09:29 47.0 °F /  8.3 °C 45.1 °F /  7.3 °C 30.11in /  1019.5hPa East 1.0mph /  1.6km/h 7.0mph /  11.3km/h 93% 0.01in /  0.3mm
09:34 47.2 °F /  8.4 °C 44.7 °F /  7.1 °C 30.12in /  1019.9hPa Calm   7.0mph /  11.3km/h 91% 0.01in /  0.3mm
09:39 47.5 °F /  8.6 °C 44.7 °F /  7.1 °C 30.11in /  1019.5hPa ENE 3.0mph /  4.8km/h 7.0mph /  11.3km/h 90% 0.01in /  0.3mm
09:44 48.0 °F /  8.9 °C 44.9 °F /  7.2 °C 30.11in /  1019.5hPa Calm   7.0mph /  11.3km/h 89% 0.01in /  0.3mm
09:49 48.3 °F /  9.1 °C 44.9 °F /  7.2 °C 30.11in /  1019.5hPa East 1.0mph /  1.6km/h 6.0mph /  9.7km/h 88% 0.01in /  0.3mm
09:54 48.5 °F /  9.2 °C 44.5 °F /  6.9 °C 30.11in /  1019.5hPa ENE 3.0mph /  4.8km/h 7.0mph /  11.3km/h 86% 0.01in /  0.3mm
09:59 48.5 °F /  9.2 °C 44.5 °F /  6.9 °C 30.11in /  1019.5hPa ENE 1.0mph /  1.6km/h 8.0mph /  12.9km/h 86% 0.01in /  0.3mm
10:04 48.6 °F /  9.2 °C 44.6 °F /  7 °C 30.12in /  1019.9hPa Calm   8.0mph /  12.9km/h 86% 0.01in /  0.3mm
10:09 48.8 °F /  9.3 °C 44.5 °F /  6.9 °C 30.12in /  1019.9hPa Calm   4.0mph /  6.4km/h 85% 0.01in /  0.3mm
10:14 49.1 °F /  9.5 °C 44.8 °F /  7.1 °C 30.11in /  1019.5hPa Calm   4.0mph /  6.4km/h 85% 0.01in /  0.3mm
10:19 49.3 °F /  9.6 °C 44.7 °F /  7.1 °C 30.11in /  1019.5hPa NE 1.0mph /  1.6km/h 4.0mph /  6.4km/h 84% 0.01in /  0.3mm
10:24 49.4 °F /  9.7 °C 44.5 °F /  6.9 °C 30.11in /  1019.5hPa NE 1.0mph /  1.6km/h 4.0mph /  6.4km/h 83% 0.01in /  0.3mm
10:29 49.7 °F /  9.8 °C 44.8 °F /  7.1 °C 30.11in /  1019.5hPa NE 1.0mph /  1.6km/h 5.0mph /  8km/h 83% 0.01in /  0.3mm
10:34 50.2 °F /  10.1 °C 45.2 °F /  7.3 °C 30.11in /  1019.5hPa Calm   6.0mph /  9.7km/h 83% 0.01in /  0.3mm
10:39 50.6 °F /  10.3 °C 45.0 °F /  7.2 °C 30.11in /  1019.5hPa Calm   6.0mph /  9.7km/h 81% 0.01in /  0.3mm
10:44 50.9 °F /  10.5 °C 45.6 °F /  7.6 °C 30.11in /  1019.5hPa Calm   4.0mph /  6.4km/h 82% 0.01in /  0.3mm
10:49 51.0 °F /  10.6 °C 45.4 °F /  7.4 °C 30.11in /  1019.5hPa Calm   1.0mph /  1.6km/h 81% 0.01in /  0.3mm
10:54 51.0 °F /  10.6 °C 45.1 °F /  7.3 °C 30.11in /  1019.5hPa Calm   1.0mph /  1.6km/h 80% 0.01in /  0.3mm
10:59 51.0 °F /  10.6 °C 45.4 °F /  7.4 °C 30.11in /  1019.5hPa Calm   1.0mph /  1.6km/h 81% 0.01in /  0.3mm
11:04 51.2 °F /  10.7 °C 45.6 °F /  7.6 °C 30.11in /  1019.5hPa Calm     81% 0.01in /  0.3mm
11:09 51.3 °F /  10.7 °C 45.7 °F /  7.6 °C 30.11in /  1019.5hPa Calm     81% 0.01in /  0.3mm
11:14 51.6 °F /  10.9 °C 46.0 °F /  7.8 °C 30.11in /  1019.5hPa Calm   1.0mph /  1.6km/h 81% 0.01in /  0.3mm
11:19 51.9 °F /  11.1 °C 45.9 °F /  7.7 °C 30.12in /  1019.9hPa Calm   1.0mph /  1.6km/h 80% 0.01in /  0.3mm
11:24 52.3 °F /  11.3 °C 46.3 °F /  7.9 °C 30.12in /  1019.9hPa Calm     80% 0.01in /  0.3mm
11:29 52.8 °F /  11.6 °C 46.8 °F /  8.2 °C 30.12in /  1019.9hPa Calm     80% 0.01in /  0.3mm
11:34 53.3 °F /  11.8 °C 46.6 °F /  8.1 °C 30.12in /  1019.9hPa Calm   1.0mph /  1.6km/h 78% 0.01in /  0.3mm
11:44 54.1 °F /  12.3 °C 47.4 °F /  8.6 °C 30.12in /  1019.9hPa Calm   3.0mph /  4.8km/h 78% 0.01in /  0.3mm
11:49 54.5 °F /  12.5 °C 47.8 °F /  8.8 °C 30.12in /  1019.9hPa Calm   1.0mph /  1.6km/h 78% 0.01in /  0.3mm
11:54 54.9 °F /  12.7 °C 47.1 °F /  8.4 °C 30.12in /  1019.9hPa Calm   2.0mph /  3.2km/h 75% 0.01in /  0.3mm
11:59 55.0 °F /  12.8 °C 47.6 °F /  8.7 °C 30.12in /  1019.9hPa Calm   2.0mph /  3.2km/h 76% 0.01in /  0.3mm
12:04 54.9 °F /  12.7 °C 47.1 °F /  8.4 °C 30.12in /  1019.9hPa Calm   4.0mph /  6.4km/h 75% 0.01in /  0.3mm
12:09 54.8 °F /  12.7 °C 47.0 °F /  8.3 °C 30.12in /  1019.9hPa Calm   4.0mph /  6.4km/h 75% 0.01in /  0.3mm
12:14 55.0 °F /  12.8 °C 47.2 °F /  8.4 °C 30.12in /  1019.9hPa ENE 2.0mph /  3.2km/h 5.0mph /  8km/h 75% 0.01in /  0.3mm
12:19 55.3 °F /  12.9 °C 47.5 °F /  8.6 °C 30.12in /  1019.9hPa NE 2.0mph /  3.2km/h 5.0mph /  8km/h 75% 0.01in /  0.3mm
12:24 55.9 °F /  13.3 °C 47.7 °F /  8.7 °C 30.11in /  1019.5hPa ENE 3.0mph /  4.8km/h 5.0mph /  8km/h 74% 0.01in /  0.3mm
12:29 56.2 °F /  13.4 °C 48.0 °F /  8.9 °C 30.11in /  1019.5hPa Calm   8.0mph /  12.9km/h 74% 0.01in /  0.3mm
12:34 56.2 °F /  13.4 °C 47.7 °F /  8.7 °C 30.11in /  1019.5hPa Calm   8.0mph /  12.9km/h 73% 0.01in /  0.3mm
12:39 56.4 °F /  13.6 °C 47.5 °F /  8.6 °C 30.11in /  1019.5hPa Calm   5.0mph /  8km/h 72% 0.01in /  0.3mm
12:44 56.7 °F /  13.7 °C 47.4 °F /  8.6 °C 30.10in /  1019.2hPa Calm   1.0mph /  1.6km/h 71% 0.01in /  0.3mm
12:49 56.5 °F /  13.6 °C 46.8 °F /  8.2 °C 30.10in /  1019.2hPa Calm   1.0mph /  1.6km/h 70% 0.01in /  0.3mm
12:54 56.3 °F /  13.5 °C 47.0 °F /  8.3 °C 30.10in /  1019.2hPa Calm   1.0mph /  1.6km/h 71% 0.01in /  0.3mm
12:59 56.3 °F /  13.5 °C 47.4 °F /  8.6 °C 30.10in /  1019.2hPa NNE 1.0mph /  1.6km/h 3.0mph /  4.8km/h 72% 0.01in /  0.3mm
13:04 57.0 °F /  13.9 °C 48.1 °F /  8.9 °C 30.09in /  1018.8hPa NNE 1.0mph /  1.6km/h 3.0mph /  4.8km/h 72% 0.01in /  0.3mm
13:09 57.4 °F /  14.1 °C 48.5 °F /  9.2 °C 30.09in /  1018.8hPa Calm   5.0mph /  8km/h 72% 0.01in /  0.3mm
13:14 57.6 °F /  14.2 °C 47.9 °F /  8.8 °C 30.09in /  1018.8hPa Calm   5.0mph /  8km/h 70% 0.01in /  0.3mm
13:19 57.8 °F /  14.3 °C 47.7 °F /  8.7 °C 30.09in /  1018.8hPa Calm   1.0mph /  1.6km/h 69% 0.01in /  0.3mm
13:24 58.0 °F /  14.4 °C 47.9 °F /  8.8 °C 30.08in /  1018.5hPa Calm   1.0mph /  1.6km/h 69% 0.01in /  0.3mm
13:29 58.0 °F /  14.4 °C 47.9 °F /  8.8 °C 30.08in /  1018.5hPa NE 2.0mph /  3.2km/h 5.0mph /  8km/h 69% 0.01in /  0.3mm
13:34 57.7 °F /  14.3 °C 47.6 °F /  8.7 °C 30.08in /  1018.5hPa Calm   5.0mph /  8km/h 69% 0.01in /  0.3mm
13:44 57.5 °F /  14.2 °C 47.4 °F /  8.6 °C 30.07in /  1018.2hPa Calm   7.0mph /  11.3km/h 69% 0.01in /  0.3mm
13:49 57.8 °F /  14.3 °C 47.7 °F /  8.7 °C 30.07in /  1018.2hPa NE 2.0mph /  3.2km/h 7.0mph /  11.3km/h 69% 0.01in /  0.3mm
13:54 58.0 °F /  14.4 °C 47.1 °F /  8.4 °C 30.07in /  1018.2hPa ENE 1.0mph /  1.6km/h 7.0mph /  11.3km/h 67% 0.01in /  0.3mm
13:59 58.3 °F /  14.6 °C 47.8 °F /  8.8 °C 30.07in /  1018.2hPa Calm   7.0mph /  11.3km/h 68% 0.01in /  0.3mm
14:04 58.6 °F /  14.8 °C 47.7 °F /  8.7 °C 30.07in /  1018.2hPa NE 2.0mph /  3.2km/h 10.0mph /  16.1km/h 67% 0.01in /  0.3mm
14:09 58.7 °F /  14.8 °C 47.4 °F /  8.6 °C 30.07in /  1018.2hPa ENE 1.0mph /  1.6km/h 10.0mph /  16.1km/h 66% 0.01in /  0.3mm
14:14 58.7 °F /  14.8 °C 47.8 °F /  8.8 °C 30.07in /  1018.2hPa Calm   6.0mph /  9.7km/h 67% 0.01in /  0.3mm
14:19 58.6 °F /  14.8 °C 47.7 °F /  8.7 °C 30.07in /  1018.2hPa Calm   5.0mph /  8km/h 67% 0.01in /  0.3mm
14:24 59.0 °F /  15 °C 48.5 °F /  9.2 °C 30.07in /  1018.2hPa Calm   4.0mph /  6.4km/h 68% 0.01in /  0.3mm
14:29 59.9 °F /  15.5 °C 49.3 °F /  9.6 °C 30.06in /  1017.8hPa ESE 1.0mph /  1.6km/h 4.0mph /  6.4km/h 68% 0.01in /  0.3mm
14:34 60.3 °F /  15.7 °C 48.5 °F /  9.2 °C 30.06in /  1017.8hPa East 2.0mph /  3.2km/h 10.0mph /  16.1km/h 65% 0.01in /  0.3mm
14:39 60.1 °F /  15.6 °C 47.5 °F /  8.6 °C 30.06in /  1017.8hPa Calm   10.0mph /  16.1km/h 63% 0.01in /  0.3mm
14:44 59.2 °F /  15.1 °C 47.0 °F /  8.3 °C 30.06in /  1017.8hPa Calm   8.0mph /  12.9km/h 64% 0.01in /  0.3mm
14:49 59.0 °F /  15 °C 47.7 °F /  8.7 °C 30.06in /  1017.8hPa Calm   8.0mph /  12.9km/h 66% 0.01in /  0.3mm
14:54 59.0 °F /  15 °C 47.3 °F /  8.5 °C 30.06in /  1017.8hPa NE 1.0mph /  1.6km/h 5.0mph /  8km/h 65% 0.01in /  0.3mm
14:59 58.8 °F /  14.9 °C 47.5 °F /  8.6 °C 30.06in /  1017.8hPa Calm   5.0mph /  8km/h 66% 0.01in /  0.3mm
15:04 59.0 °F /  15 °C 47.3 °F /  8.5 °C 30.06in /  1017.8hPa Calm   5.0mph /  8km/h 65% 0.01in /  0.3mm
15:09 59.1 °F /  15.1 °C 47.4 °F /  8.6 °C 30.05in /  1017.5hPa Calm   2.0mph /  3.2km/h 65% 0.01in /  0.3mm
15:14 59.3 °F /  15.2 °C 46.7 °F /  8.2 °C 30.05in /  1017.5hPa SE 3.0mph /  4.8km/h 7.0mph /  11.3km/h 63% 0.01in /  0.3mm
15:19 60.4 °F /  15.8 °C 47.8 °F /  8.8 °C 30.05in /  1017.5hPa South 1.0mph /  1.6km/h 7.0mph /  11.3km/h 63% 0.01in /  0.3mm
15:24 60.8 °F /  16 °C 49.0 °F /  9.4 °C 30.05in /  1017.5hPa Calm   7.0mph /  11.3km/h 65% 0.01in /  0.3mm
15:29 61.3 °F /  16.3 °C 48.2 °F /  9 °C 30.05in /  1017.5hPa Calm   7.0mph /  11.3km/h 62% 0.01in /  0.3mm
15:34 60.5 °F /  15.8 °C 47.4 °F /  8.6 °C 30.04in /  1017.2hPa East 2.0mph /  3.2km/h 7.0mph /  11.3km/h 62% 0.01in /  0.3mm
15:39 60.5 °F /  15.8 °C 47.9 °F /  8.8 °C 30.05in /  1017.5hPa Calm   7.0mph /  11.3km/h 63% 0.01in /  0.3mm
15:44 60.5 °F /  15.8 °C 47.4 °F /  8.6 °C 30.05in /  1017.5hPa Calm   6.0mph /  9.7km/h 62% 0.01in /  0.3mm
15:49 60.6 °F /  15.9 °C 47.9 °F /  8.8 °C 30.04in /  1017.2hPa Calm     63% 0.01in /  0.3mm
15:54 61.0 °F /  16.1 °C 48.7 °F /  9.3 °C 30.04in /  1017.2hPa Calm   1.0mph /  1.6km/h 64% 0.01in /  0.3mm
15:59 61.1 °F /  16.2 °C 47.6 °F /  8.7 °C 30.04in /  1017.2hPa South 1.0mph /  1.6km/h 7.0mph /  11.3km/h 61% 0.01in /  0.3mm
16:04 61.2 °F /  16.2 °C 48.1 °F /  8.9 °C 30.04in /  1017.2hPa South 2.0mph /  3.2km/h 7.0mph /  11.3km/h 62% 0.01in /  0.3mm
16:09 60.8 °F /  16 °C 47.3 °F /  8.5 °C 30.04in /  1017.2hPa Calm   8.0mph /  12.9km/h 61% 0.01in /  0.3mm
16:14 61.1 °F /  16.2 °C 48.0 °F /  8.9 °C 30.04in /  1017.2hPa Calm   8.0mph /  12.9km/h 62% 0.01in /  0.3mm
16:19 61.2 °F /  16.2 °C 48.1 °F /  8.9 °C 30.04in /  1017.2hPa SSE 1.0mph /  1.6km/h 9.0mph /  14.5km/h 62% 0.01in /  0.3mm
16:24 61.0 °F /  16.1 °C 47.9 °F /  8.8 °C 30.04in /  1017.2hPa South 2.0mph /  3.2km/h 9.0mph /  14.5km/h 62% 0.01in /  0.3mm
16:29 60.7 °F /  15.9 °C 47.2 °F /  8.4 °C 30.04in /  1017.2hPa SSW 2.0mph /  3.2km/h 9.0mph /  14.5km/h 61% 0.01in /  0.3mm
16:34 60.8 °F /  16 °C 47.7 °F /  8.7 °C 30.04in /  1017.2hPa SSW 2.0mph /  3.2km/h 9.0mph /  14.5km/h 62% 0.01in /  0.3mm
16:39 61.6 °F /  16.4 °C 48.5 °F /  9.2 °C 30.03in /  1016.8hPa Calm   7.0mph /  11.3km/h 62% 0.01in /  0.3mm
16:44 61.5 °F /  16.4 °C 47.1 °F /  8.4 °C 30.03in /  1016.8hPa SSW 6.0mph /  9.7km/h 10.0mph /  16.1km/h 59% 0.01in /  0.3mm
16:49 60.5 °F /  15.8 °C 46.6 °F /  8.1 °C 30.03in /  1016.8hPa SSE 6.0mph /  9.7km/h 10.0mph /  16.1km/h 60% 0.01in /  0.3mm
16:54 59.8 °F /  15.4 °C 46.3 °F /  7.9 °C 30.03in /  1016.8hPa SSW 4.0mph /  6.4km/h 10.0mph /  16.1km/h 61% 0.01in /  0.3mm
16:59 60.2 °F /  15.7 °C 48.0 °F /  8.9 °C 30.03in /  1016.8hPa Calm   8.0mph /  12.9km/h 64% 0.01in /  0.3mm
17:04 61.1 °F /  16.2 °C 47.6 °F /  8.7 °C 30.04in /  1017.2hPa Calm   6.0mph /  9.7km/h 61% 0.01in /  0.3mm
17:09 60.9 °F /  16.1 °C 47.4 °F /  8.6 °C 30.04in /  1017.2hPa Calm   9.0mph /  14.5km/h 61% 0.01in /  0.3mm
17:14 60.8 °F /  16 °C 47.3 °F /  8.5 °C 30.04in /  1017.2hPa South 4.0mph /  6.4km/h 9.0mph /  14.5km/h 61% 0.01in /  0.3mm
17:19 61.5 °F /  16.4 °C 47.5 °F /  8.6 °C 30.04in /  1017.2hPa SSW 5.0mph /  8km/h 11.0mph /  17.7km/h 60% 0.01in /  0.3mm
17:24 61.8 °F /  16.6 °C 47.3 °F /  8.5 °C 30.04in /  1017.2hPa SSW 5.0mph /  8km/h 11.0mph /  17.7km/h 59% 0.01in /  0.3mm
17:29 61.8 °F /  16.6 °C 47.3 °F /  8.5 °C 30.04in /  1017.2hPa South 4.0mph /  6.4km/h 10.0mph /  16.1km/h 59% 0.01in /  0.3mm
17:34 61.6 °F /  16.4 °C 47.1 °F /  8.4 °C 30.04in /  1017.2hPa SSW 3.0mph /  4.8km/h 9.0mph /  14.5km/h 59% 0.01in /  0.3mm
17:44 60.1 °F /  15.6 °C 46.6 °F /  8.1 °C 30.04in /  1017.2hPa SSW 2.0mph /  3.2km/h 13.0mph /  20.9km/h 61% 0.01in /  0.3mm
17:49 59.6 °F /  15.3 °C 46.6 °F /  8.1 °C 30.04in /  1017.2hPa SSE 2.0mph /  3.2km/h 13.0mph /  20.9km/h 62% 0.01in /  0.3mm
17:54 59.4 °F /  15.2 °C 46.4 °F /  8 °C 30.04in /  1017.2hPa South 3.0mph /  4.8km/h 10.0mph /  16.1km/h 62% 0.01in /  0.3mm
17:59 59.6 °F /  15.3 °C 46.6 °F /  8.1 °C 30.04in /  1017.2hPa SSW 3.0mph /  4.8km/h 10.0mph /  16.1km/h 62% 0.01in /  0.3mm
18:04 59.8 °F /  15.4 °C 46.8 °F /  8.2 °C 30.04in /  1017.2hPa SSW 5.0mph /  8km/h 12.0mph /  19.3km/h 62% 0.01in /  0.3mm
18:09 59.4 °F /  15.2 °C 46.4 °F /  8 °C 30.04in /  1017.2hPa SSW 2.0mph /  3.2km/h 12.0mph /  19.3km/h 62% 0.01in /  0.3mm
18:14 59.0 °F /  15 °C 46.8 °F /  8.2 °C 30.04in /  1017.2hPa SSW 2.0mph /  3.2km/h 11.0mph /  17.7km/h 64% 0.01in /  0.3mm
18:19 58.9 °F /  14.9 °C 46.8 °F /  8.2 °C 30.04in /  1017.2hPa SW 1.0mph /  1.6km/h 10.0mph /  16.1km/h 64% 0.01in /  0.3mm
18:24 58.2 °F /  14.6 °C 46.1 °F /  7.8 °C 30.04in /  1017.2hPa SSE 3.0mph /  4.8km/h 10.0mph /  16.1km/h 64% 0.01in /  0.3mm
18:29 58.1 °F /  14.5 °C 46.4 °F /  8 °C 30.03in /  1016.8hPa Calm   10.0mph /  16.1km/h 65% 0.01in /  0.3mm
18:39 57.4 °F /  14.1 °C 46.1 °F /  7.8 °C 30.04in /  1017.2hPa South 2.0mph /  3.2km/h 10.0mph /  16.1km/h 66% 0.01in /  0.3mm
18:44 57.2 °F /  14 °C 46.0 °F /  7.8 °C 30.04in /  1017.2hPa South 2.0mph /  3.2km/h 10.0mph /  16.1km/h 66% 0.01in /  0.3mm
18:49 56.9 °F /  13.8 °C 46.1 °F /  7.8 °C 30.04in /  1017.2hPa South 2.0mph /  3.2km/h 8.0mph /  12.9km/h 67% 0.01in /  0.3mm
18:54 56.5 °F /  13.6 °C 46.1 °F /  7.8 °C 30.04in /  1017.2hPa SSW 2.0mph /  3.2km/h 8.0mph /  12.9km/h 68% 0.01in /  0.3mm
18:59 56.0 °F /  13.3 °C 45.6 °F /  7.6 °C 30.04in /  1017.2hPa SSW 2.0mph /  3.2km/h 7.0mph /  11.3km/h 68% 0.01in /  0.3mm
19:09 55.2 °F /  12.9 °C 45.6 °F /  7.6 °C 30.04in /  1017.2hPa SSE 1.0mph /  1.6km/h 12.0mph /  19.3km/h 70% 0.01in /  0.3mm
19:14 54.9 °F /  12.7 °C 45.3 °F /  7.4 °C 30.04in /  1017.2hPa South 1.0mph /  1.6km/h 9.0mph /  14.5km/h 70% 0.01in /  0.3mm
19:19 54.7 °F /  12.6 °C 45.5 °F /  7.5 °C 30.04in /  1017.2hPa South 4.0mph /  6.4km/h 9.0mph /  14.5km/h 71% 0.01in /  0.3mm
19:24 54.5 °F /  12.5 °C 45.3 °F /  7.4 °C 30.04in /  1017.2hPa South 4.0mph /  6.4km/h 10.0mph /  16.1km/h 71% 0.01in /  0.3mm
19:29 54.3 °F /  12.4 °C 45.5 °F /  7.5 °C 30.03in /  1016.8hPa South 3.0mph /  4.8km/h 10.0mph /  16.1km/h 72% 0.01in /  0.3mm
19:34 54.1 °F /  12.3 °C 45.3 °F /  7.4 °C 30.04in /  1017.2hPa South 3.0mph /  4.8km/h 7.0mph /  11.3km/h 72% 0.01in /  0.3mm
19:39 54.0 °F /  12.2 °C 45.2 °F /  7.3 °C 30.03in /  1016.8hPa South 1.0mph /  1.6km/h 7.0mph /  11.3km/h 72% 0.01in /  0.3mm
19:44 53.9 °F /  12.2 °C 45.1 °F /  7.3 °C 30.03in /  1016.8hPa South 3.0mph /  4.8km/h 9.0mph /  14.5km/h 72% 0.01in /  0.3mm
19:49 53.8 °F /  12.1 °C 45.4 °F /  7.4 °C 30.03in /  1016.8hPa SSE 5.0mph /  8km/h 9.0mph /  14.5km/h 73% 0.01in /  0.3mm
19:54 53.8 °F /  12.1 °C 45.4 °F /  7.4 °C 30.03in /  1016.8hPa Calm   9.0mph /  14.5km/h 73% 0.01in /  0.3mm
19:59 53.7 °F /  12.1 °C 45.3 °F /  7.4 °C 30.03in /  1016.8hPa South 1.0mph /  1.6km/h 8.0mph /  12.9km/h 73% 0.01in /  0.3mm
20:04 53.6 °F /  12 °C 45.2 °F /  7.3 °C 30.02in /  1016.5hPa SSE 1.0mph /  1.6km/h 8.0mph /  12.9km/h 73% 0.01in /  0.3mm
20:09 53.5 °F /  11.9 °C 45.4 °F /  7.4 °C 30.02in /  1016.5hPa South 1.0mph /  1.6km/h 7.0mph /  11.3km/h 74% 0.01in /  0.3mm
20:14 53.3 °F /  11.8 °C 45.2 °F /  7.3 °C 30.02in /  1016.5hPa SSE 3.0mph /  4.8km/h 8.0mph /  12.9km/h 74% 0.01in /  0.3mm
20:19 53.2 °F /  11.8 °C 45.1 °F /  7.3 °C 30.03in /  1016.8hPa Calm   8.0mph /  12.9km/h 74% 0.01in /  0.3mm
20:24 53.0 °F /  11.7 °C 45.3 °F /  7.4 °C 30.03in /  1016.8hPa South 1.0mph /  1.6km/h 7.0mph /  11.3km/h 75% 0.01in /  0.3mm
20:29 52.9 °F /  11.6 °C 45.2 °F /  7.3 °C 30.04in /  1017.2hPa South 2.0mph /  3.2km/h 7.0mph /  11.3km/h 75% 0.01in /  0.3mm
20:34 52.8 °F /  11.6 °C 45.1 °F /  7.3 °C 30.03in /  1016.8hPa SSW 2.0mph /  3.2km/h 7.0mph /  11.3km/h 75% 0.01in /  0.3mm
20:39 52.6 °F /  11.4 °C 44.9 °F /  7.2 °C 30.03in /  1016.8hPa South 2.0mph /  3.2km/h 7.0mph /  11.3km/h 75% 0.01in /  0.3mm
20:44 52.4 °F /  11.3 °C 44.7 °F /  7.1 °C 30.03in /  1016.8hPa SSE 1.0mph /  1.6km/h 7.0mph /  11.3km/h 75% 0.01in /  0.3mm
20:49 52.3 °F /  11.3 °C 45.0 °F /  7.2 °C 30.03in /  1016.8hPa SSE 1.0mph /  1.6km/h 9.0mph /  14.5km/h 76% 0.01in /  0.3mm
20:54 52.1 °F /  11.2 °C 44.8 °F /  7.1 °C 30.03in /  1016.8hPa SSW 3.0mph /  4.8km/h 10.0mph /  16.1km/h 76% 0.01in /  0.3mm
20:59 51.9 °F /  11.1 °C 44.6 °F /  7 °C 30.03in /  1016.8hPa SSW 2.0mph /  3.2km/h 10.0mph /  16.1km/h 76% 0.01in /  0.3mm
21:04 51.8 °F /  11 °C 44.8 °F /  7.1 °C 30.03in /  1016.8hPa SSW 2.0mph /  3.2km/h 8.0mph /  12.9km/h 77% 0.01in /  0.3mm
21:09 51.8 °F /  11 °C 44.8 °F /  7.1 °C 30.03in /  1016.8hPa SSE 1.0mph /  1.6km/h 8.0mph /  12.9km/h 77% 0.01in /  0.3mm
21:14 51.8 °F /  11 °C 44.8 °F /  7.1 °C 30.03in /  1016.8hPa South 5.0mph /  8km/h 8.0mph /  12.9km/h 77% 0.01in /  0.3mm
21:19 51.9 °F /  11.1 °C 44.9 °F /  7.2 °C 30.04in /  1017.2hPa SSW 4.0mph /  6.4km/h 13.0mph /  20.9km/h 77% 0.01in /  0.3mm
21:24 51.9 °F /  11.1 °C 44.9 °F /  7.2 °C 30.04in /  1017.2hPa South 4.0mph /  6.4km/h 13.0mph /  20.9km/h 77% 0.01in /  0.3mm
21:29 51.9 °F /  11.1 °C 44.9 °F /  7.2 °C 30.03in /  1016.8hPa SSW 3.0mph /  4.8km/h 10.0mph /  16.1km/h 77% 0.01in /  0.3mm
21:34 51.8 °F /  11 °C 44.8 °F /  7.1 °C 30.03in /  1016.8hPa South 4.0mph /  6.4km/h 10.0mph /  16.1km/h 77% 0.01in /  0.3mm
21:39 51.7 °F /  10.9 °C 45.1 °F /  7.3 °C 30.03in /  1016.8hPa South 2.0mph /  3.2km/h 9.0mph /  14.5km/h 78% 0.01in /  0.3mm
21:44 51.7 °F /  10.9 °C 45.1 °F /  7.3 °C 30.02in /  1016.5hPa South 4.0mph /  6.4km/h 12.0mph /  19.3km/h 78% 0.01in /  0.3mm
21:49 51.7 °F /  10.9 °C 45.1 °F /  7.3 °C 30.02in /  1016.5hPa South 4.0mph /  6.4km/h 12.0mph /  19.3km/h 78% 0.01in /  0.3mm
21:54 51.6 °F /  10.9 °C 45.0 °F /  7.2 °C 30.02in /  1016.5hPa SSW 4.0mph /  6.4km/h 10.0mph /  16.1km/h 78% 0.01in /  0.3mm
21:59 51.5 °F /  10.8 °C 44.9 °F /  7.2 °C 30.02in /  1016.5hPa South 2.0mph /  3.2km/h 9.0mph /  14.5km/h 78% 0.01in /  0.3mm
22:04 51.5 °F /  10.8 °C 44.9 °F /  7.2 °C 30.01in /  1016.1hPa South 4.0mph /  6.4km/h 9.0mph /  14.5km/h 78% 0.01in /  0.3mm
22:09 51.5 °F /  10.8 °C 44.9 °F /  7.2 °C 30.02in /  1016.5hPa South 2.0mph /  3.2km/h 11.0mph /  17.7km/h 78% 0.01in /  0.3mm
22:14 51.5 °F /  10.8 °C 44.9 °F /  7.2 °C 30.02in /  1016.5hPa South 3.0mph /  4.8km/h 11.0mph /  17.7km/h 78% 0.01in /  0.3mm
22:24 51.5 °F /  10.8 °C 44.9 °F /  7.2 °C 30.02in /  1016.5hPa South 1.0mph /  1.6km/h 6.0mph /  9.7km/h 78% 0.01in /  0.3mm
22:29 51.5 °F /  10.8 °C 45.2 °F /  7.3 °C 30.03in /  1016.8hPa SSW 1.0mph /  1.6km/h 6.0mph /  9.7km/h 79% 0.01in /  0.3mm
22:34 51.5 °F /  10.8 °C 45.2 °F /  7.3 °C 30.03in /  1016.8hPa SSW 4.0mph /  6.4km/h 11.0mph /  17.7km/h 79% 0.01in /  0.3mm
22:39 51.5 °F /  10.8 °C 45.2 °F /  7.3 °C 30.03in /  1016.8hPa South 1.0mph /  1.6km/h 11.0mph /  17.7km/h 79% 0.01in /  0.3mm
22:44 51.5 °F /  10.8 °C 45.2 °F /  7.3 °C 30.03in /  1016.8hPa SSW 2.0mph /  3.2km/h 10.0mph /  16.1km/h 79% 0.01in /  0.3mm
22:49 51.4 °F /  10.8 °C 45.1 °F /  7.3 °C 30.03in /  1016.8hPa SW 1.0mph /  1.6km/h 10.0mph /  16.1km/h 79% 0.01in /  0.3mm
22:54 51.4 °F /  10.8 °C 45.1 °F /  7.3 °C 30.03in /  1016.8hPa SSW 5.0mph /  8km/h 8.0mph /  12.9km/h 79% 0.01in /  0.3mm
22:59 51.4 °F /  10.8 °C 45.1 °F /  7.3 °C 30.03in /  1016.8hPa SSW 5.0mph /  8km/h 10.0mph /  16.1km/h 79% 0.01in /  0.3mm
23:04 51.3 °F /  10.7 °C 45.0 °F /  7.2 °C 30.03in /  1016.8hPa SSW 3.0mph /  4.8km/h 10.0mph /  16.1km/h 79% 0.01in /  0.3mm
23:09 51.2 °F /  10.7 °C 44.9 °F /  7.2 °C 30.03in /  1016.8hPa SSW 4.0mph /  6.4km/h 10.0mph /  16.1km/h 79% 0.01in /  0.3mm
23:14 51.1 °F /  10.6 °C 44.8 °F /  7.1 °C 30.03in /  1016.8hPa SSW 3.0mph /  4.8km/h 9.0mph /  14.5km/h 79% 0.01in /  0.3mm
23:19 51.1 °F /  10.6 °C 45.2 °F /  7.3 °C 30.03in /  1016.8hPa SSW 2.0mph /  3.2km/h 9.0mph /  14.5km/h 80% 0.01in /  0.3mm
23:24 51.1 °F /  10.6 °C 45.2 °F /  7.3 °C 30.03in /  1016.8hPa SSW 4.0mph /  6.4km/h 9.0mph /  14.5km/h 80% 0.01in /  0.3mm
23:29 51.0 °F /  10.6 °C 45.1 °F /  7.3 °C 30.03in /  1016.8hPa SSW 3.0mph /  4.8km/h 9.0mph /  14.5km/h 80% 0.01in /  0.3mm
23:34 51.0 °F /  10.6 °C 45.1 °F /  7.3 °C 30.03in /  1016.8hPa SSW 4.0mph /  6.4km/h 9.0mph /  14.5km/h 80% 0.01in /  0.3mm
23:39 51.0 °F /  10.6 °C 45.1 °F /  7.3 °C 30.03in /  1016.8hPa SSW 4.0mph /  6.4km/h 12.0mph /  19.3km/h 80% 0.01in /  0.3mm
23:44 51.0 °F /  10.6 °C 45.1 °F /  7.3 °C 30.02in /  1016.5hPa SSW 3.0mph /  4.8km/h 12.0mph /  19.3km/h 80% 0.01in /  0.3mm
23:49 51.0 °F /  10.6 °C 45.1 °F /  7.3 °C 30.02in /  1016.5hPa South 5.0mph /  8km/h 14.0mph /  22.5km/h 80% 0.01in /  0.3mm
23:54 50.9 °F /  10.5 °C 45.3 °F /  7.4 °C 30.02in /  1016.5hPa South 5.0mph /  8km/h 14.0mph /  22.5km/h 81% 0.01in /  0.3mm
23:59 50.7 °F /  10.4 °C 45.4 °F /  7.4 °C 30.02in /  1016.5hPa South 3.0mph /  4.8km/h 10.0mph /  16.1km/h 82% 0.01in /  0.3mm
Westford Weather
Compliments of Weather Underground

 
 
Current Radar Loop:

Copyright © WestfordWeather.net 2007-2014. All rights reserved.